sensor_id;sensor_type;location;lat;lon;timestamp;P1;durP1;ratioP1;P2;durP2;ratioP2
13325;SDS011;6732;51.044;3.746;2022-12-10T00:01:52;54.03;;;35.87;;
13325;SDS011;6732;51.044;3.746;2022-12-10T00:04:18;51.63;;;32.90;;
13325;SDS011;6732;51.044;3.746;2022-12-10T00:06:45;51.30;;;33.40;;
13325;SDS011;6732;51.044;3.746;2022-12-10T00:09:13;50.07;;;34.63;;
13325;SDS011;6732;51.044;3.746;2022-12-10T00:11:40;49.87;;;33.93;;
13325;SDS011;6732;51.044;3.746;2022-12-10T00:14:07;50.13;;;33.67;;
13325;SDS011;6732;51.044;3.746;2022-12-10T00:16:34;49.90;;;33.47;;
13325;SDS011;6732;51.044;3.746;2022-12-10T00:19:01;50.10;;;33.73;;
13325;SDS011;6732;51.044;3.746;2022-12-10T00:21:28;47.13;;;32.70;;
13325;SDS011;6732;51.044;3.746;2022-12-10T00:23:56;49.87;;;34.10;;
13325;SDS011;6732;51.044;3.746;2022-12-10T00:26:23;46.17;;;32.63;;
13325;SDS011;6732;51.044;3.746;2022-12-10T00:28:51;51.13;;;35.03;;
13325;SDS011;6732;51.044;3.746;2022-12-10T00:31:27;49.90;;;31.17;;
13325;SDS011;6732;51.044;3.746;2022-12-10T00:33:58;49.60;;;33.63;;
13325;SDS011;6732;51.044;3.746;2022-12-10T00:36:27;51.50;;;33.43;;
13325;SDS011;6732;51.044;3.746;2022-12-10T00:38:55;49.77;;;34.37;;
13325;SDS011;6732;51.044;3.746;2022-12-10T00:41:22;48.70;;;33.47;;
13325;SDS011;6732;51.044;3.746;2022-12-10T00:43:48;50.10;;;34.30;;
13325;SDS011;6732;51.044;3.746;2022-12-10T00:46:14;48.47;;;33.20;;
13325;SDS011;6732;51.044;3.746;2022-12-10T00:48:42;49.23;;;34.27;;
13325;SDS011;6732;51.044;3.746;2022-12-10T00:51:12;50.43;;;34.40;;
13325;SDS011;6732;51.044;3.746;2022-12-10T00:53:43;48.80;;;33.23;;
13325;SDS011;6732;51.044;3.746;2022-12-10T00:56:12;49.57;;;33.70;;
13325;SDS011;6732;51.044;3.746;2022-12-10T00:58:39;47.60;;;33.03;;
13325;SDS011;6732;51.044;3.746;2022-12-10T01:01:26;51.57;;;34.60;;
13325;SDS011;6732;51.044;3.746;2022-12-10T01:03:55;51.17;;;34.03;;
13325;SDS011;6732;51.044;3.746;2022-12-10T01:08:51;49.80;;;34.43;;
13325;SDS011;6732;51.044;3.746;2022-12-10T01:11:19;52.47;;;36.37;;
13325;SDS011;6732;51.044;3.746;2022-12-10T01:13:47;53.53;;;36.93;;
13325;SDS011;6732;51.044;3.746;2022-12-10T01:16:14;54.17;;;35.80;;
13325;SDS011;6732;51.044;3.746;2022-12-10T01:18:43;56.00;;;37.90;;
13325;SDS011;6732;51.044;3.746;2022-12-10T01:21:10;56.20;;;36.67;;
13325;SDS011;6732;51.044;3.746;2022-12-10T01:23:38;54.17;;;37.33;;
13325;SDS011;6732;51.044;3.746;2022-12-10T01:26:07;55.53;;;37.43;;
13325;SDS011;6732;51.044;3.746;2022-12-10T01:28:35;53.53;;;34.97;;
13325;SDS011;6732;51.044;3.746;2022-12-10T01:31:07;57.30;;;38.03;;
13325;SDS011;6732;51.044;3.746;2022-12-10T01:33:37;53.60;;;36.10;;
13325;SDS011;6732;51.044;3.746;2022-12-10T01:36:05;55.20;;;37.23;;
13325;SDS011;6732;51.044;3.746;2022-12-10T01:38:33;55.37;;;36.50;;
13325;SDS011;6732;51.044;3.746;2022-12-10T01:41:00;53.17;;;36.03;;
13325;SDS011;6732;51.044;3.746;2022-12-10T01:43:26;59.63;;;35.20;;
13325;SDS011;6732;51.044;3.746;2022-12-10T01:45:52;56.37;;;36.23;;
13325;SDS011;6732;51.044;3.746;2022-12-10T01:48:19;57.30;;;38.13;;
13325;SDS011;6732;51.044;3.746;2022-12-10T01:50:45;54.20;;;36.97;;
13325;SDS011;6732;51.044;3.746;2022-12-10T01:53:11;56.50;;;37.53;;
13325;SDS011;6732;51.044;3.746;2022-12-10T01:58:14;58.07;;;38.90;;
13325;SDS011;6732;51.044;3.746;2022-12-10T02:01:05;66.43;;;41.17;;
13325;SDS011;6732;51.044;3.746;2022-12-10T02:03:48;61.60;;;39.90;;
13325;SDS011;6732;51.044;3.746;2022-12-10T02:09:18;61.87;;;42.13;;
13325;SDS011;6732;51.044;3.746;2022-12-10T02:11:57;65.13;;;41.67;;
13325;SDS011;6732;51.044;3.746;2022-12-10T02:14:29;64.00;;;42.00;;
13325;SDS011;6732;51.044;3.746;2022-12-10T02:17:03;62.87;;;41.17;;
13325;SDS011;6732;51.044;3.746;2022-12-10T02:22:16;61.83;;;40.27;;
13325;SDS011;6732;51.044;3.746;2022-12-10T02:24:44;59.07;;;37.97;;
13325;SDS011;6732;51.044;3.746;2022-12-10T02:27:19;60.57;;;38.37;;
13325;SDS011;6732;51.044;3.746;2022-12-10T02:29:49;61.83;;;38.03;;
13325;SDS011;6732;51.044;3.746;2022-12-10T02:32:19;59.90;;;39.27;;
13325;SDS011;6732;51.044;3.746;2022-12-10T02:34:56;60.67;;;35.93;;
13325;SDS011;6732;51.044;3.746;2022-12-10T02:37:35;57.47;;;35.40;;
13325;SDS011;6732;51.044;3.746;2022-12-10T02:40:08;56.43;;;35.37;;
13325;SDS011;6732;51.044;3.746;2022-12-10T02:42:40;52.50;;;34.07;;
13325;SDS011;6732;51.044;3.746;2022-12-10T02:45:08;53.07;;;36.50;;
13325;SDS011;6732;51.044;3.746;2022-12-10T02:47:35;53.33;;;34.50;;
13325;SDS011;6732;51.044;3.746;2022-12-10T02:50:04;51.93;;;35.20;;
13325;SDS011;6732;51.044;3.746;2022-12-10T02:52:31;53.07;;;34.27;;
13325;SDS011;6732;51.044;3.746;2022-12-10T02:54:57;51.53;;;35.40;;
13325;SDS011;6732;51.044;3.746;2022-12-10T02:57:35;55.53;;;35.73;;
13325;SDS011;6732;51.044;3.746;2022-12-10T03:00:12;50.33;;;33.37;;
13325;SDS011;6732;51.044;3.746;2022-12-10T03:05:52;52.47;;;33.93;;
13325;SDS011;6732;51.044;3.746;2022-12-10T03:08:30;49.50;;;31.83;;
13325;SDS011;6732;51.044;3.746;2022-12-10T03:11:11;46.93;;;32.23;;
13325;SDS011;6732;51.044;3.746;2022-12-10T03:14:02;46.50;;;31.70;;
13325;SDS011;6732;51.044;3.746;2022-12-10T03:16:49;47.90;;;32.60;;
13325;SDS011;6732;51.044;3.746;2022-12-10T03:19:21;47.60;;;31.47;;
13325;SDS011;6732;51.044;3.746;2022-12-10T03:21:51;49.90;;;33.03;;
13325;SDS011;6732;51.044;3.746;2022-12-10T03:24:19;52.23;;;33.50;;
13325;SDS011;6732;51.044;3.746;2022-12-10T03:26:47;50.40;;;33.07;;
13325;SDS011;6732;51.044;3.746;2022-12-10T03:29:17;47.70;;;32.33;;
13325;SDS011;6732;51.044;3.746;2022-12-10T03:31:47;51.27;;;33.13;;
13325;SDS011;6732;51.044;3.746;2022-12-10T03:34:14;50.30;;;33.20;;
13325;SDS011;6732;51.044;3.746;2022-12-10T03:36:41;49.50;;;33.20;;
13325;SDS011;6732;51.044;3.746;2022-12-10T03:39:08;53.53;;;32.97;;
13325;SDS011;6732;51.044;3.746;2022-12-10T03:41:34;52.87;;;33.80;;
13325;SDS011;6732;51.044;3.746;2022-12-10T03:44:00;51.30;;;32.80;;
13325;SDS011;6732;51.044;3.746;2022-12-10T03:46:27;48.27;;;32.60;;
13325;SDS011;6732;51.044;3.746;2022-12-10T03:48:55;52.20;;;33.53;;
13325;SDS011;6732;51.044;3.746;2022-12-10T03:51:21;51.37;;;33.33;;
13325;SDS011;6732;51.044;3.746;2022-12-10T03:53:47;47.20;;;32.17;;
13325;SDS011;6732;51.044;3.746;2022-12-10T03:56:15;43.90;;;31.73;;
13325;SDS011;6732;51.044;3.746;2022-12-10T03:58:42;49.20;;;32.20;;
13325;SDS011;6732;51.044;3.746;2022-12-10T04:01:08;46.40;;;30.90;;
13325;SDS011;6732;51.044;3.746;2022-12-10T04:03:38;45.13;;;30.30;;
13325;SDS011;6732;51.044;3.746;2022-12-10T04:06:07;46.03;;;31.00;;
13325;SDS011;6732;51.044;3.746;2022-12-10T04:08:34;49.10;;;30.77;;
13325;SDS011;6732;51.044;3.746;2022-12-10T04:11:04;46.10;;;30.73;;
13325;SDS011;6732;51.044;3.746;2022-12-10T04:13:36;46.87;;;30.83;;
13325;SDS011;6732;51.044;3.746;2022-12-10T04:16:22;46.13;;;29.70;;
13325;SDS011;6732;51.044;3.746;2022-12-10T04:18:51;47.53;;;27.67;;
13325;SDS011;6732;51.044;3.746;2022-12-10T04:21:25;43.70;;;28.27;;
13325;SDS011;6732;51.044;3.746;2022-12-10T04:24:11;42.90;;;29.53;;
13325;SDS011;6732;51.044;3.746;2022-12-10T04:26:56;41.23;;;28.40;;
13325;SDS011;6732;51.044;3.746;2022-12-10T04:29:25;42.93;;;28.67;;
13325;SDS011;6732;51.044;3.746;2022-12-10T04:31:53;42.53;;;27.97;;
13325;SDS011;6732;51.044;3.746;2022-12-10T04:34:27;41.03;;;26.90;;
13325;SDS011;6732;51.044;3.746;2022-12-10T04:36:53;43.93;;;28.60;;
13325;SDS011;6732;51.044;3.746;2022-12-10T04:39:19;42.53;;;29.40;;
13325;SDS011;6732;51.044;3.746;2022-12-10T04:41:46;42.17;;;27.43;;
13325;SDS011;6732;51.044;3.746;2022-12-10T04:44:13;43.30;;;27.93;;
13325;SDS011;6732;51.044;3.746;2022-12-10T04:46:39;41.47;;;26.37;;
13325;SDS011;6732;51.044;3.746;2022-12-10T04:49:05;40.67;;;25.93;;
13325;SDS011;6732;51.044;3.746;2022-12-10T04:51:32;44.47;;;28.30;;
13325;SDS011;6732;51.044;3.746;2022-12-10T04:53:58;42.17;;;27.00;;
13325;SDS011;6732;51.044;3.746;2022-12-10T04:56:24;40.50;;;25.07;;
13325;SDS011;6732;51.044;3.746;2022-12-10T04:58:50;41.40;;;27.60;;
13325;SDS011;6732;51.044;3.746;2022-12-10T05:01:16;41.57;;;27.30;;
13325;SDS011;6732;51.044;3.746;2022-12-10T05:03:43;38.80;;;26.47;;
13325;SDS011;6732;51.044;3.746;2022-12-10T05:06:11;37.60;;;25.33;;
13325;SDS011;6732;51.044;3.746;2022-12-10T05:08:38;37.40;;;26.77;;
13325;SDS011;6732;51.044;3.746;2022-12-10T05:11:06;39.93;;;26.50;;
13325;SDS011;6732;51.044;3.746;2022-12-10T05:13:35;45.17;;;27.83;;
13325;SDS011;6732;51.044;3.746;2022-12-10T05:16:01;42.07;;;27.67;;
13325;SDS011;6732;51.044;3.746;2022-12-10T05:18:28;41.17;;;26.77;;
13325;SDS011;6732;51.044;3.746;2022-12-10T05:20:54;38.10;;;26.43;;
13325;SDS011;6732;51.044;3.746;2022-12-10T05:23:23;39.00;;;27.30;;
13325;SDS011;6732;51.044;3.746;2022-12-10T05:26:02;41.73;;;28.27;;
13325;SDS011;6732;51.044;3.746;2022-12-10T05:28:31;41.97;;;28.40;;
13325;SDS011;6732;51.044;3.746;2022-12-10T05:30:59;38.60;;;27.67;;
13325;SDS011;6732;51.044;3.746;2022-12-10T05:33:25;42.27;;;27.03;;
13325;SDS011;6732;51.044;3.746;2022-12-10T05:35:59;42.77;;;27.40;;
13325;SDS011;6732;51.044;3.746;2022-12-10T05:38:26;43.30;;;27.40;;
13325;SDS011;6732;51.044;3.746;2022-12-10T05:40:54;41.93;;;26.87;;
13325;SDS011;6732;51.044;3.746;2022-12-10T05:43:20;39.20;;;26.50;;
13325;SDS011;6732;51.044;3.746;2022-12-10T05:45:46;40.07;;;25.53;;
13325;SDS011;6732;51.044;3.746;2022-12-10T05:48:14;42.20;;;27.47;;
13325;SDS011;6732;51.044;3.746;2022-12-10T05:50:41;45.33;;;27.00;;
13325;SDS011;6732;51.044;3.746;2022-12-10T05:53:07;39.63;;;25.03;;
13325;SDS011;6732;51.044;3.746;2022-12-10T05:55:33;42.90;;;26.80;;
13325;SDS011;6732;51.044;3.746;2022-12-10T05:57:59;44.67;;;27.00;;
13325;SDS011;6732;51.044;3.746;2022-12-10T06:00:26;47.90;;;28.37;;
13325;SDS011;6732;51.044;3.746;2022-12-10T06:02:52;46.40;;;28.27;;
13325;SDS011;6732;51.044;3.746;2022-12-10T06:05:18;44.93;;;28.37;;
13325;SDS011;6732;51.044;3.746;2022-12-10T06:07:44;42.33;;;27.37;;
13325;SDS011;6732;51.044;3.746;2022-12-10T06:10:10;42.90;;;27.70;;
13325;SDS011;6732;51.044;3.746;2022-12-10T06:12:37;47.23;;;28.93;;
13325;SDS011;6732;51.044;3.746;2022-12-10T06:15:04;47.00;;;30.10;;
13325;SDS011;6732;51.044;3.746;2022-12-10T06:17:30;43.67;;;27.10;;
13325;SDS011;6732;51.044;3.746;2022-12-10T06:19:56;45.67;;;28.57;;
13325;SDS011;6732;51.044;3.746;2022-12-10T06:22:22;44.47;;;28.20;;
13325;SDS011;6732;51.044;3.746;2022-12-10T06:24:48;43.10;;;27.77;;
13325;SDS011;6732;51.044;3.746;2022-12-10T06:27:14;43.60;;;27.40;;
13325;SDS011;6732;51.044;3.746;2022-12-10T06:29:40;43.53;;;27.97;;
13325;SDS011;6732;51.044;3.746;2022-12-10T06:32:06;46.03;;;28.37;;
13325;SDS011;6732;51.044;3.746;2022-12-10T06:34:33;43.47;;;28.47;;
13325;SDS011;6732;51.044;3.746;2022-12-10T06:36:58;44.10;;;27.73;;
13325;SDS011;6732;51.044;3.746;2022-12-10T06:39:25;44.17;;;27.13;;
13325;SDS011;6732;51.044;3.746;2022-12-10T06:41:50;42.87;;;27.67;;
13325;SDS011;6732;51.044;3.746;2022-12-10T06:44:16;42.03;;;26.23;;
13325;SDS011;6732;51.044;3.746;2022-12-10T06:46:42;41.40;;;27.47;;
13325;SDS011;6732;51.044;3.746;2022-12-10T06:49:09;42.43;;;27.37;;
13325;SDS011;6732;51.044;3.746;2022-12-10T06:51:35;45.57;;;28.47;;
13325;SDS011;6732;51.044;3.746;2022-12-10T06:54:00;44.13;;;27.07;;
13325;SDS011;6732;51.044;3.746;2022-12-10T06:56:26;41.93;;;27.03;;
13325;SDS011;6732;51.044;3.746;2022-12-10T06:58:52;41.77;;;26.07;;
13325;SDS011;6732;51.044;3.746;2022-12-10T07:01:19;43.83;;;27.63;;
13325;SDS011;6732;51.044;3.746;2022-12-10T07:03:49;45.40;;;29.23;;
13325;SDS011;6732;51.044;3.746;2022-12-10T07:06:16;45.17;;;28.83;;
13325;SDS011;6732;51.044;3.746;2022-12-10T07:08:42;44.60;;;29.03;;
13325;SDS011;6732;51.044;3.746;2022-12-10T07:11:10;46.63;;;28.73;;
13325;SDS011;6732;51.044;3.746;2022-12-10T07:13:38;45.07;;;28.77;;
13325;SDS011;6732;51.044;3.746;2022-12-10T07:16:15;43.20;;;27.83;;
13325;SDS011;6732;51.044;3.746;2022-12-10T07:18:50;41.27;;;26.67;;
13325;SDS011;6732;51.044;3.746;2022-12-10T07:23:54;45.80;;;27.70;;
13325;SDS011;6732;51.044;3.746;2022-12-10T07:26:23;42.57;;;26.87;;
13325;SDS011;6732;51.044;3.746;2022-12-10T07:28:50;44.87;;;27.63;;
13325;SDS011;6732;51.044;3.746;2022-12-10T07:31:16;45.13;;;28.87;;
13325;SDS011;6732;51.044;3.746;2022-12-10T07:33:42;46.47;;;29.23;;
13325;SDS011;6732;51.044;3.746;2022-12-10T07:36:09;45.17;;;27.93;;
13325;SDS011;6732;51.044;3.746;2022-12-10T07:38:37;49.03;;;28.30;;
13325;SDS011;6732;51.044;3.746;2022-12-10T07:41:04;45.33;;;27.93;;
13325;SDS011;6732;51.044;3.746;2022-12-10T07:43:33;46.23;;;26.43;;
13325;SDS011;6732;51.044;3.746;2022-12-10T07:46:06;45.27;;;27.87;;
13325;SDS011;6732;51.044;3.746;2022-12-10T07:48:35;47.30;;;27.90;;
13325;SDS011;6732;51.044;3.746;2022-12-10T07:51:03;47.77;;;27.90;;
13325;SDS011;6732;51.044;3.746;2022-12-10T07:53:29;46.90;;;29.60;;
13325;SDS011;6732;51.044;3.746;2022-12-10T07:55:55;48.13;;;28.87;;
13325;SDS011;6732;51.044;3.746;2022-12-10T07:58:21;45.93;;;28.00;;
13325;SDS011;6732;51.044;3.746;2022-12-10T08:00:47;49.20;;;28.40;;
13325;SDS011;6732;51.044;3.746;2022-12-10T08:03:13;49.50;;;27.67;;
13325;SDS011;6732;51.044;3.746;2022-12-10T08:05:39;50.03;;;27.67;;
13325;SDS011;6732;51.044;3.746;2022-12-10T08:08:05;53.93;;;31.33;;
13325;SDS011;6732;51.044;3.746;2022-12-10T08:10:35;52.80;;;30.23;;
13325;SDS011;6732;51.044;3.746;2022-12-10T08:13:01;50.57;;;28.87;;
13325;SDS011;6732;51.044;3.746;2022-12-10T08:15:28;50.97;;;30.23;;
13325;SDS011;6732;51.044;3.746;2022-12-10T08:17:54;53.20;;;30.93;;
13325;SDS011;6732;51.044;3.746;2022-12-10T08:20:21;52.90;;;30.20;;
13325;SDS011;6732;51.044;3.746;2022-12-10T08:22:47;57.53;;;31.37;;
13325;SDS011;6732;51.044;3.746;2022-12-10T08:25:13;50.53;;;29.47;;
13325;SDS011;6732;51.044;3.746;2022-12-10T08:27:39;59.07;;;30.50;;
13325;SDS011;6732;51.044;3.746;2022-12-10T08:30:05;52.33;;;29.77;;
13325;SDS011;6732;51.044;3.746;2022-12-10T08:32:32;53.00;;;29.47;;
13325;SDS011;6732;51.044;3.746;2022-12-10T08:34:57;58.93;;;32.30;;
13325;SDS011;6732;51.044;3.746;2022-12-10T08:37:23;53.13;;;31.43;;
13325;SDS011;6732;51.044;3.746;2022-12-10T08:39:49;54.33;;;31.13;;
13325;SDS011;6732;51.044;3.746;2022-12-10T08:42:16;50.97;;;30.87;;
13325;SDS011;6732;51.044;3.746;2022-12-10T08:44:41;55.67;;;32.47;;
13325;SDS011;6732;51.044;3.746;2022-12-10T08:47:07;56.00;;;33.50;;
13325;SDS011;6732;51.044;3.746;2022-12-10T08:49:33;55.90;;;31.17;;
13325;SDS011;6732;51.044;3.746;2022-12-10T08:52:00;56.03;;;33.20;;
13325;SDS011;6732;51.044;3.746;2022-12-10T08:54:25;56.47;;;32.37;;
13325;SDS011;6732;51.044;3.746;2022-12-10T08:56:52;56.57;;;32.10;;
13325;SDS011;6732;51.044;3.746;2022-12-10T08:59:18;51.97;;;28.47;;
13325;SDS011;6732;51.044;3.746;2022-12-10T09:01:45;47.87;;;28.47;;
13325;SDS011;6732;51.044;3.746;2022-12-10T09:04:11;46.50;;;29.87;;
13325;SDS011;6732;51.044;3.746;2022-12-10T09:06:38;52.73;;;30.90;;
13325;SDS011;6732;51.044;3.746;2022-12-10T09:09:03;47.30;;;28.23;;
13325;SDS011;6732;51.044;3.746;2022-12-10T09:11:31;52.40;;;28.80;;
13325;SDS011;6732;51.044;3.746;2022-12-10T09:13:58;50.67;;;29.03;;
13325;SDS011;6732;51.044;3.746;2022-12-10T09:16:28;49.10;;;27.83;;
13325;SDS011;6732;51.044;3.746;2022-12-10T09:18:59;50.00;;;28.53;;
13325;SDS011;6732;51.044;3.746;2022-12-10T09:21:25;46.37;;;26.23;;
13325;SDS011;6732;51.044;3.746;2022-12-10T09:23:51;46.93;;;27.17;;
13325;SDS011;6732;51.044;3.746;2022-12-10T09:26:18;49.33;;;26.80;;
13325;SDS011;6732;51.044;3.746;2022-12-10T09:28:45;47.47;;;26.90;;
13325;SDS011;6732;51.044;3.746;2022-12-10T09:31:13;52.53;;;28.37;;
13325;SDS011;6732;51.044;3.746;2022-12-10T09:33:40;51.90;;;29.07;;
13325;SDS011;6732;51.044;3.746;2022-12-10T09:36:07;54.37;;;29.30;;
13325;SDS011;6732;51.044;3.746;2022-12-10T09:38:35;53.97;;;28.97;;
13325;SDS011;6732;51.044;3.746;2022-12-10T09:41:03;50.00;;;26.70;;
13325;SDS011;6732;51.044;3.746;2022-12-10T09:43:47;53.63;;;27.30;;
13325;SDS011;6732;51.044;3.746;2022-12-10T09:46:42;49.53;;;27.13;;
13325;SDS011;6732;51.044;3.746;2022-12-10T09:49:23;48.80;;;25.10;;
13325;SDS011;6732;51.044;3.746;2022-12-10T09:51:54;49.10;;;27.93;;
13325;SDS011;6732;51.044;3.746;2022-12-10T09:54:30;47.87;;;26.03;;
13325;SDS011;6732;51.044;3.746;2022-12-10T09:56:59;49.10;;;27.23;;
13325;SDS011;6732;51.044;3.746;2022-12-10T09:59:40;46.27;;;26.63;;
13325;SDS011;6732;51.044;3.746;2022-12-10T10:05:08;50.87;;;26.37;;
13325;SDS011;6732;51.044;3.746;2022-12-10T10:07:44;46.87;;;26.27;;
13325;SDS011;6732;51.044;3.746;2022-12-10T10:10:24;50.47;;;27.13;;
13325;SDS011;6732;51.044;3.746;2022-12-10T10:13:15;50.20;;;27.63;;
13325;SDS011;6732;51.044;3.746;2022-12-10T10:23:14;49.77;;;27.43;;
13325;SDS011;6732;51.044;3.746;2022-12-10T10:25:41;48.67;;;26.37;;
13325;SDS011;6732;51.044;3.746;2022-12-10T10:28:11;47.27;;;26.43;;
13325;SDS011;6732;51.044;3.746;2022-12-10T10:30:39;46.47;;;25.03;;
13325;SDS011;6732;51.044;3.746;2022-12-10T10:33:09;44.27;;;27.27;;
13325;SDS011;6732;51.044;3.746;2022-12-10T10:38:28;49.93;;;25.87;;
13325;SDS011;6732;51.044;3.746;2022-12-10T10:40:59;46.17;;;24.47;;
13325;SDS011;6732;51.044;3.746;2022-12-10T10:43:47;45.17;;;25.03;;
13325;SDS011;6732;51.044;3.746;2022-12-10T10:46:24;45.97;;;25.00;;
13325;SDS011;6732;51.044;3.746;2022-12-10T10:48:51;47.03;;;23.83;;
13325;SDS011;6732;51.044;3.746;2022-12-10T10:51:36;50.53;;;25.30;;
13325;SDS011;6732;51.044;3.746;2022-12-10T10:54:07;44.17;;;24.27;;
13325;SDS011;6732;51.044;3.746;2022-12-10T10:56:40;49.53;;;26.53;;
13325;SDS011;6732;51.044;3.746;2022-12-10T11:01:46;46.10;;;24.30;;
13325;SDS011;6732;51.044;3.746;2022-12-10T11:04:13;50.50;;;24.87;;
13325;SDS011;6732;51.044;3.746;2022-12-10T11:06:41;49.07;;;25.90;;
13325;SDS011;6732;51.044;3.746;2022-12-10T11:09:13;49.90;;;24.97;;
13325;SDS011;6732;51.044;3.746;2022-12-10T11:11:50;43.30;;;23.27;;
13325;SDS011;6732;51.044;3.746;2022-12-10T11:16:56;41.37;;;23.63;;
13325;SDS011;6732;51.044;3.746;2022-12-10T11:19:44;42.47;;;23.87;;
13325;SDS011;6732;51.044;3.746;2022-12-10T11:25:48;40.87;;;22.37;;
13325;SDS011;6732;51.044;3.746;2022-12-10T11:28:42;37.70;;;23.17;;
13325;SDS011;6732;51.044;3.746;2022-12-10T11:31:24;42.90;;;24.93;;
13325;SDS011;6732;51.044;3.746;2022-12-10T11:34:18;43.53;;;24.43;;
13325;SDS011;6732;51.044;3.746;2022-12-10T11:36:55;42.83;;;23.73;;
13325;SDS011;6732;51.044;3.746;2022-12-10T11:42:11;41.13;;;21.67;;
13325;SDS011;6732;51.044;3.746;2022-12-10T11:47:29;39.20;;;21.93;;
13325;SDS011;6732;51.044;3.746;2022-12-10T11:50:17;35.93;;;21.53;;
13325;SDS011;6732;51.044;3.746;2022-12-10T12:12:58;36.43;;;22.10;;
13325;SDS011;6732;51.044;3.746;2022-12-10T12:15:50;38.57;;;21.67;;
13325;SDS011;6732;51.044;3.746;2022-12-10T12:18:23;39.13;;;22.17;;
13325;SDS011;6732;51.044;3.746;2022-12-10T12:21:10;34.93;;;21.37;;
13325;SDS011;6732;51.044;3.746;2022-12-10T12:26:36;36.17;;;20.47;;
13325;SDS011;6732;51.044;3.746;2022-12-10T12:32:11;38.80;;;22.03;;
13325;SDS011;6732;51.044;3.746;2022-12-10T12:34:47;34.30;;;20.80;;
13325;SDS011;6732;51.044;3.746;2022-12-10T12:37:16;29.60;;;18.73;;
13325;SDS011;6732;51.044;3.746;2022-12-10T12:39:57;34.80;;;20.20;;
13325;SDS011;6732;51.044;3.746;2022-12-10T12:42:28;34.97;;;19.57;;
13325;SDS011;6732;51.044;3.746;2022-12-10T12:53:03;36.23;;;20.83;;
13325;SDS011;6732;51.044;3.746;2022-12-10T12:55:39;35.97;;;20.80;;
13325;SDS011;6732;51.044;3.746;2022-12-10T12:58:13;36.40;;;20.07;;
13325;SDS011;6732;51.044;3.746;2022-12-10T13:00:42;32.03;;;18.13;;
13325;SDS011;6732;51.044;3.746;2022-12-10T13:03:21;35.07;;;20.07;;
13325;SDS011;6732;51.044;3.746;2022-12-10T13:06:11;32.77;;;21.17;;
13325;SDS011;6732;51.044;3.746;2022-12-10T13:08:42;33.93;;;20.30;;
13325;SDS011;6732;51.044;3.746;2022-12-10T13:13:37;31.10;;;17.77;;
13325;SDS011;6732;51.044;3.746;2022-12-10T13:24:42;34.17;;;20.60;;
13325;SDS011;6732;51.044;3.746;2022-12-10T13:27:15;34.53;;;21.23;;
13325;SDS011;6732;51.044;3.746;2022-12-10T13:30:24;37.10;;;20.90;;
13325;SDS011;6732;51.044;3.746;2022-12-10T13:35:49;37.67;;;21.67;;
13325;SDS011;6732;51.044;3.746;2022-12-10T13:38:22;32.67;;;20.57;;
13325;SDS011;6732;51.044;3.746;2022-12-10T13:41:03;34.33;;;18.73;;
13325;SDS011;6732;51.044;3.746;2022-12-10T13:43:53;35.40;;;18.73;;
13325;SDS011;6732;51.044;3.746;2022-12-10T13:49:19;31.63;;;17.90;;
13325;SDS011;6732;51.044;3.746;2022-12-10T13:54:29;33.83;;;20.20;;
13325;SDS011;6732;51.044;3.746;2022-12-10T14:05:41;34.87;;;20.93;;
13325;SDS011;6732;51.044;3.746;2022-12-10T14:08:13;31.77;;;20.47;;
13325;SDS011;6732;51.044;3.746;2022-12-10T14:10:43;32.53;;;19.63;;
13325;SDS011;6732;51.044;3.746;2022-12-10T14:13:11;35.53;;;22.60;;
13325;SDS011;6732;51.044;3.746;2022-12-10T14:15:41;32.83;;;20.73;;
13325;SDS011;6732;51.044;3.746;2022-12-10T14:18:21;37.10;;;19.13;;
13325;SDS011;6732;51.044;3.746;2022-12-10T14:20:49;31.63;;;19.10;;
13325;SDS011;6732;51.044;3.746;2022-12-10T14:23:25;32.30;;;19.00;;
13325;SDS011;6732;51.044;3.746;2022-12-10T14:26:13;30.33;;;18.93;;
13325;SDS011;6732;51.044;3.746;2022-12-10T14:28:46;32.73;;;17.87;;
13325;SDS011;6732;51.044;3.746;2022-12-10T14:31:32;26.53;;;19.73;;
13325;SDS011;6732;51.044;3.746;2022-12-10T14:34:04;27.40;;;20.37;;
13325;SDS011;6732;51.044;3.746;2022-12-10T14:36:38;32.63;;;21.43;;
13325;SDS011;6732;51.044;3.746;2022-12-10T14:39:12;31.37;;;20.43;;
13325;SDS011;6732;51.044;3.746;2022-12-10T14:41:40;30.83;;;20.77;;
13325;SDS011;6732;51.044;3.746;2022-12-10T14:44:08;29.97;;;20.70;;
13325;SDS011;6732;51.044;3.746;2022-12-10T14:46:39;28.17;;;20.73;;
13325;SDS011;6732;51.044;3.746;2022-12-10T14:49:06;32.00;;;21.03;;
13325;SDS011;6732;51.044;3.746;2022-12-10T14:51:40;30.17;;;20.97;;
13325;SDS011;6732;51.044;3.746;2022-12-10T14:54:22;32.40;;;21.83;;
13325;SDS011;6732;51.044;3.746;2022-12-10T14:57:06;28.73;;;19.93;;
13325;SDS011;6732;51.044;3.746;2022-12-10T14:59:36;28.97;;;23.50;;
13325;SDS011;6732;51.044;3.746;2022-12-10T15:02:26;29.90;;;20.47;;
13325;SDS011;6732;51.044;3.746;2022-12-10T15:04:55;30.40;;;20.63;;
13325;SDS011;6732;51.044;3.746;2022-12-10T15:07:22;30.73;;;20.07;;
13325;SDS011;6732;51.044;3.746;2022-12-10T15:09:50;30.23;;;20.87;;
13325;SDS011;6732;51.044;3.746;2022-12-10T15:12:36;29.17;;;20.87;;
13325;SDS011;6732;51.044;3.746;2022-12-10T15:15:22;29.87;;;18.57;;
13325;SDS011;6732;51.044;3.746;2022-12-10T15:20:50;31.57;;;21.27;;
13325;SDS011;6732;51.044;3.746;2022-12-10T15:23:23;32.60;;;21.87;;
13325;SDS011;6732;51.044;3.746;2022-12-10T15:25:51;31.03;;;21.20;;
13325;SDS011;6732;51.044;3.746;2022-12-10T15:28:39;30.40;;;19.93;;
13325;SDS011;6732;51.044;3.746;2022-12-10T15:39:48;31.63;;;20.67;;
13325;SDS011;6732;51.044;3.746;2022-12-10T15:42:03;33.97;;;21.13;;
13325;SDS011;6732;51.044;3.746;2022-12-10T15:44:32;31.27;;;21.07;;
13325;SDS011;6732;51.044;3.746;2022-12-10T15:49:50;31.30;;;20.27;;
13325;SDS011;6732;51.044;3.746;2022-12-10T15:52:21;27.97;;;20.03;;
13325;SDS011;6732;51.044;3.746;2022-12-10T15:54:50;28.33;;;21.47;;
13325;SDS011;6732;51.044;3.746;2022-12-10T15:57:19;30.17;;;21.07;;
13325;SDS011;6732;51.044;3.746;2022-12-10T15:59:47;29.90;;;21.20;;
13325;SDS011;6732;51.044;3.746;2022-12-10T16:04:55;27.77;;;20.63;;
13325;SDS011;6732;51.044;3.746;2022-12-10T16:07:22;27.83;;;20.53;;
13325;SDS011;6732;51.044;3.746;2022-12-10T16:09:48;30.83;;;20.77;;
13325;SDS011;6732;51.044;3.746;2022-12-10T16:12:14;30.23;;;19.13;;
13325;SDS011;6732;51.044;3.746;2022-12-10T16:14:42;28.13;;;18.53;;
13325;SDS011;6732;51.044;3.746;2022-12-10T16:17:16;30.83;;;21.00;;
13325;SDS011;6732;51.044;3.746;2022-12-10T16:19:42;30.87;;;20.90;;
13325;SDS011;6732;51.044;3.746;2022-12-10T16:22:09;31.50;;;20.90;;
13325;SDS011;6732;51.044;3.746;2022-12-10T16:24:35;27.77;;;20.77;;
13325;SDS011;6732;51.044;3.746;2022-12-10T16:27:04;30.27;;;21.63;;
13325;SDS011;6732;51.044;3.746;2022-12-10T16:29:36;31.17;;;20.83;;
13325;SDS011;6732;51.044;3.746;2022-12-10T16:32:02;26.47;;;20.57;;
13325;SDS011;6732;51.044;3.746;2022-12-10T16:34:28;27.60;;;21.20;;
13325;SDS011;6732;51.044;3.746;2022-12-10T16:36:54;32.20;;;21.63;;
13325;SDS011;6732;51.044;3.746;2022-12-10T16:39:20;27.73;;;21.97;;
13325;SDS011;6732;51.044;3.746;2022-12-10T16:41:51;29.17;;;22.33;;
13325;SDS011;6732;51.044;3.746;2022-12-10T16:44:18;26.10;;;21.87;;
13325;SDS011;6732;51.044;3.746;2022-12-10T16:46:44;28.73;;;21.70;;
13325;SDS011;6732;51.044;3.746;2022-12-10T16:49:10;28.70;;;21.77;;
13325;SDS011;6732;51.044;3.746;2022-12-10T16:51:37;30.40;;;22.67;;
13325;SDS011;6732;51.044;3.746;2022-12-10T16:54:03;29.23;;;22.00;;
13325;SDS011;6732;51.044;3.746;2022-12-10T16:56:29;30.30;;;22.27;;